createdAt,value
2019-06-15T00:02:28.631Z,61.7
2019-06-15T00:07:27.905Z,61.5
2019-06-15T00:12:28.041Z,61.9
2019-06-15T00:17:28.974Z,61.7
2019-06-15T00:22:29.287Z,61.7
2019-06-15T00:27:28.857Z,61.6
2019-06-15T00:32:29.884Z,61.6
2019-06-15T00:37:28.131Z,61.7
2019-06-15T00:42:29.013Z,61.7
2019-06-15T00:47:28.492Z,61.7
2019-06-15T00:52:28.199Z,61.7
2019-06-15T00:57:28.399Z,61.5
2019-06-15T01:02:28.325Z,61.3
2019-06-15T01:07:28.667Z,61.3
2019-06-15T01:12:28.113Z,61.3
2019-06-15T01:17:29.986Z,61.4
2019-06-15T01:22:28.202Z,61.5
2019-06-15T01:27:28.647Z,61.4
2019-06-15T01:32:29.075Z,61.3
2019-06-15T01:37:28.550Z,61.6
2019-06-15T01:42:28.878Z,61.3
2019-06-15T01:47:28.034Z,61.4
2019-06-15T01:52:28.579Z,61.4
2019-06-15T01:57:28.449Z,61.4
2019-06-15T02:02:28.731Z,61.2
2019-06-15T02:07:28.099Z,61.2
2019-06-15T02:12:28.303Z,61.3
2019-06-15T02:17:28.723Z,61.2
2019-06-15T02:22:29.809Z,61.2
2019-06-15T02:27:28.567Z,61.1
2019-06-15T02:32:28.446Z,61.1
2019-06-15T02:37:28.219Z,61.2
2019-06-15T02:42:28.279Z,61.2
2019-06-15T02:47:28.114Z,61.1
2019-06-15T02:52:27.854Z,61.1
2019-06-15T02:57:28.429Z,61.0
2019-06-15T03:02:28.493Z,60.9
2019-06-15T03:07:29.624Z,60.8
2019-06-15T03:12:29.613Z,60.9
2019-06-15T03:17:28.641Z,60.9
2019-06-15T03:22:28.575Z,60.8
2019-06-15T03:27:28.673Z,61.0
2019-06-15T03:32:28.664Z,62.0
2019-06-15T03:37:28.909Z,61.7
2019-06-15T03:42:28.274Z,62.1
2019-06-15T03:47:29.900Z,62.4
2019-06-15T03:52:28.048Z,62.6
2019-06-15T03:57:28.268Z,62.8
2019-06-15T04:02:28.417Z,62.6
2019-06-15T04:07:28.807Z,62.8
2019-06-15T04:12:28.706Z,62.5
2019-06-15T04:17:28.605Z,62.4
2019-06-15T04:22:28.406Z,62.4
2019-06-15T04:27:29.089Z,62.8
2019-06-15T04:32:28.535Z,62.8
2019-06-15T04:37:29.387Z,63.0
2019-06-15T04:42:28.324Z,62.6
2019-06-15T04:47:28.403Z,62.5
2019-06-15T04:52:28.313Z,62.6
2019-06-15T04:57:28.672Z,62.7
2019-06-15T05:02:29.185Z,63.1
2019-06-15T05:07:29.060Z,63.0
2019-06-15T05:12:29.859Z,62.8
2019-06-15T05:17:28.564Z,62.5
2019-06-15T05:22:29.360Z,62.0
2019-06-15T05:27:28.100Z,61.9
2019-06-15T05:32:28.694Z,62.8
2019-06-15T05:37:29.333Z,62.7
2019-06-15T05:42:30.002Z,62.6
2019-06-15T05:47:29.127Z,62.7
2019-06-15T05:52:28.529Z,62.6
2019-06-15T05:57:27.872Z,62.6
2019-06-15T06:02:28.444Z,62.6
2019-06-15T06:07:28.439Z,62.8
2019-06-15T06:12:28.503Z,62.9
2019-06-15T06:17:28.657Z,62.1
2019-06-15T06:22:28.023Z,61.7
2019-06-15T06:27:37.030Z,61.8
2019-06-15T06:32:28.562Z,61.6
2019-06-15T06:37:28.472Z,62.1
2019-06-15T06:42:28.680Z,62.3
2019-06-15T06:47:28.666Z,62.8
2019-06-15T06:52:30.879Z,62.7
2019-06-15T06:57:28.208Z,62.2
2019-06-15T07:02:28.745Z,62.8
2019-06-15T07:07:29.507Z,62.5
2019-06-15T07:12:28.607Z,63.6
2019-06-15T07:17:28.311Z,63.2
2019-06-15T07:22:28.289Z,62.6
2019-06-15T07:27:27.672Z,63.3
2019-06-15T07:32:29.637Z,63.4
2019-06-15T07:37:29.930Z,63.6
2019-06-15T07:42:29.762Z,62.9
2019-06-15T07:47:28.869Z,62.9
2019-06-15T07:52:27.880Z,63.2
2019-06-15T07:57:28.531Z,62.3
2019-06-15T08:02:28.288Z,62.3
2019-06-15T08:07:28.450Z,62.3
2019-06-15T08:12:28.637Z,62.6
2019-06-15T08:17:28.454Z,62.5
2019-06-15T08:22:28.517Z,62.5
2019-06-15T08:27:28.046Z,62.1
2019-06-15T08:32:28.767Z,61.8
2019-06-15T08:37:28.599Z,62.4
2019-06-15T08:42:28.652Z,61.9
2019-06-15T08:47:28.324Z,61.9
2019-06-15T08:52:28.203Z,61.4
2019-06-15T08:57:28.090Z,61.0
2019-06-15T09:02:29.305Z,61.1
2019-06-15T09:07:28.529Z,61.9
2019-06-15T09:12:28.417Z,62.0
2019-06-15T09:17:29.092Z,62.6
2019-06-15T09:22:28.116Z,61.9
2019-06-15T09:27:28.221Z,61.3
2019-06-15T09:32:28.775Z,61.5
2019-06-15T09:37:28.375Z,61.3
2019-06-15T09:42:29.344Z,61.3
2019-06-15T09:47:28.095Z,61.0
2019-06-15T09:52:28.784Z,60.4
2019-06-15T09:57:28.849Z,60.8
2019-06-15T10:02:27.806Z,60.7
2019-06-15T10:07:29.607Z,60.5
2019-06-15T10:12:29.075Z,61.5
2019-06-15T10:17:28.671Z,61.8
2019-06-15T10:22:28.487Z,62.5
2019-06-15T10:27:27.807Z,62.1
2019-06-15T10:32:29.309Z,62.3
2019-06-15T10:37:29.351Z,62.0
2019-06-15T10:42:28.028Z,61.5
2019-06-15T10:47:29.288Z,61.5
2019-06-15T10:52:29.031Z,61.1
2019-06-15T10:57:28.394Z,61.2
2019-06-15T11:02:29.257Z,61.0
2019-06-15T11:07:28.439Z,61.0
2019-06-15T11:12:28.077Z,61.1
2019-06-15T11:17:29.073Z,60.9
2019-06-15T11:22:28.547Z,60.3
2019-06-15T11:27:29.009Z,60.2
2019-06-15T11:32:29.850Z,60.6
2019-06-15T11:37:28.106Z,59.9
2019-06-15T11:42:28.903Z,60.0
2019-06-15T11:47:29.120Z,60.3
2019-06-15T11:52:27.787Z,60.7
2019-06-15T11:57:27.761Z,60.7
2019-06-15T12:02:28.350Z,59.9
2019-06-15T12:07:28.660Z,59.9
2019-06-15T12:12:28.374Z,59.7
2019-06-15T12:17:27.893Z,60.2
2019-06-15T12:22:28.293Z,59.6
2019-06-15T12:27:28.684Z,59.9
2019-06-15T12:32:29.634Z,61.1
2019-06-15T12:37:28.370Z,61.1
2019-06-15T12:42:28.819Z,60.3
2019-06-15T12:47:27.811Z,60.6
2019-06-15T12:52:28.081Z,60.7
2019-06-15T12:57:29.078Z,60.8
2019-06-15T13:02:28.772Z,61.2
2019-06-15T13:07:29.760Z,61.2
2019-06-15T13:12:28.432Z,61.4
2019-06-15T13:17:29.677Z,61.4
2019-06-15T13:22:28.855Z,61.9
2019-06-15T13:27:28.271Z,61.9
2019-06-15T13:32:28.013Z,61.4
2019-06-15T13:37:42.506Z,61.4
2019-06-15T13:42:29.515Z,61.0
2019-06-15T13:47:28.798Z,61.0
2019-06-15T13:52:28.554Z,61.0
2019-06-15T13:57:29.492Z,61.0
2019-06-15T14:02:29.083Z,60.8
2019-06-15T14:07:29.255Z,60.8
2019-06-15T14:12:29.343Z,61.0
2019-06-15T14:17:28.399Z,61.0
2019-06-15T14:22:28.571Z,61.2
2019-06-15T14:27:29.311Z,61.0
2019-06-15T14:32:28.400Z,60.1
2019-06-15T14:37:28.647Z,60.2
2019-06-15T14:42:29.111Z,60.2
2019-06-15T14:47:28.742Z,60.3
2019-06-15T14:52:28.309Z,56.9
2019-06-15T14:57:29.153Z,56.8
2019-06-15T15:02:28.948Z,57.2
2019-06-15T15:07:28.780Z,56.2
2019-06-15T15:12:28.005Z,57.8
2019-06-15T15:17:28.999Z,51.4
2019-06-15T15:22:28.340Z,49.0
2019-06-15T15:27:29.282Z,48.8
2019-06-15T15:32:32.168Z,46.8
2019-06-15T15:37:28.535Z,46.8
2019-06-15T15:42:28.175Z,47.5
2019-06-15T15:47:29.500Z,47.4
2019-06-15T15:52:29.462Z,47.1
2019-06-15T15:57:27.785Z,48.8
2019-06-15T16:02:48.797Z,48.8
2019-06-15T16:07:28.484Z,51.4
2019-06-15T16:12:28.328Z,44.6
2019-06-15T16:17:28.615Z,44.6
2019-06-15T16:22:29.088Z,43.2
2019-06-15T16:27:28.862Z,43.2
2019-06-15T16:32:28.663Z,42.9
2019-06-15T16:37:29.595Z,43.6
2019-06-15T16:42:28.768Z,43.8
2019-06-15T16:47:28.427Z,43.0
2019-06-15T16:52:28.956Z,44.0
2019-06-15T16:57:28.346Z,44.6
2019-06-15T17:02:28.618Z,44.5
2019-06-15T17:07:29.109Z,46.2
2019-06-15T17:12:28.428Z,45.6
2019-06-15T17:17:28.573Z,49.8
2019-06-15T17:22:28.432Z,53.2
2019-06-15T17:27:28.977Z,54.7
2019-06-15T17:32:28.401Z,56.4
2019-06-15T17:37:28.685Z,56.8
2019-06-15T17:42:28.721Z,57.6
2019-06-15T17:47:28.976Z,58.1
2019-06-15T17:52:28.717Z,58.2
2019-06-15T17:57:28.041Z,58.7
2019-06-15T18:02:28.747Z,58.1
2019-06-15T18:07:28.440Z,55.1
2019-06-15T18:12:31.037Z,51.0
2019-06-15T18:17:28.950Z,51.7
2019-06-15T18:22:29.062Z,56.9
2019-06-15T18:27:28.261Z,56.3
2019-06-15T18:32:28.493Z,57.5
2019-06-15T18:37:28.802Z,58.3
2019-06-15T18:42:29.005Z,58.7
2019-06-15T18:47:28.865Z,58.9
2019-06-15T18:52:28.631Z,58.9
2019-06-15T18:57:28.849Z,58.9
2019-06-15T19:02:28.815Z,59.0
2019-06-15T19:07:28.898Z,59.1
2019-06-15T19:12:30.357Z,59.4
2019-06-15T19:17:29.847Z,59.5
2019-06-15T19:22:28.801Z,59.6
2019-06-15T19:27:29.090Z,59.8
2019-06-15T19:32:29.103Z,59.8
2019-06-15T19:37:29.480Z,59.7
2019-06-15T19:42:28.151Z,59.8
2019-06-15T19:47:28.413Z,59.9
2019-06-15T19:52:29.045Z,59.9
2019-06-15T19:57:28.221Z,60.1
2019-06-15T20:02:28.842Z,60.2
2019-06-15T20:07:29.728Z,60.2
2019-06-15T20:12:29.044Z,60.2
2019-06-15T20:17:29.056Z,60.3
2019-06-15T20:22:30.389Z,60.3
2019-06-15T20:27:30.163Z,60.4
2019-06-15T20:32:27.910Z,60.2
2019-06-15T20:37:27.948Z,60.2
2019-06-15T20:42:29.785Z,60.2
2019-06-15T20:47:28.178Z,60.2
2019-06-15T20:52:28.418Z,60.1
2019-06-15T20:57:27.617Z,60.4
2019-06-15T21:02:28.447Z,60.3
2019-06-15T21:07:28.440Z,60.2
2019-06-15T21:12:27.883Z,60.2
2019-06-15T21:17:29.320Z,60.1
2019-06-15T21:22:29.138Z,60.2
2019-06-15T21:27:28.649Z,60.2
2019-06-15T21:32:27.809Z,60.1
2019-06-15T21:37:28.729Z,60.1
2019-06-15T21:42:28.282Z,60.1
2019-06-15T21:47:28.542Z,60.1
2019-06-15T21:52:27.920Z,59.8
2019-06-15T21:57:28.113Z,59.8
2019-06-15T22:02:28.036Z,59.9
2019-06-15T22:07:28.154Z,59.8
2019-06-15T22:12:28.443Z,59.8
2019-06-15T22:22:41.574Z,59.5
2019-06-15T22:27:41.012Z,59.8
2019-06-15T22:32:40.738Z,60.2
2019-06-15T22:37:39.935Z,60.2
2019-06-15T22:42:41.464Z,60.4
2019-06-15T22:47:41.141Z,60.4
2019-06-15T22:52:40.708Z,60.4
2019-06-15T22:57:40.068Z,60.4
2019-06-15T23:02:40.948Z,60.3
2019-06-15T23:07:40.982Z,60.6
2019-06-15T23:12:28.153Z,60.5
2019-06-15T23:17:28.042Z,60.6
2019-06-15T23:22:28.639Z,60.5
2019-06-15T23:27:27.406Z,60.5
2019-06-15T23:32:28.508Z,60.5
2019-06-15T23:37:27.773Z,60.7
2019-06-15T23:42:28.894Z,60.6
2019-06-15T23:47:28.364Z,60.6
2019-06-15T23:52:28.297Z,60.7
2019-06-15T23:57:28.429Z,60.7
